createdAt,value
2023-12-03T00:01:00.719Z,10.40
2023-12-03T00:05:10.098Z,10.07
2023-12-03T00:07:12.166Z,10.07
2023-12-03T00:09:14.033Z,9.35
2023-12-03T00:11:15.636Z,9.02
2023-12-03T00:15:23.729Z,8.95
2023-12-03T00:17:25.341Z,8.30
2023-12-03T00:21:29.256Z,9.73
2023-12-03T00:23:30.983Z,8.20
2023-12-03T00:27:39.548Z,8.45
2023-12-03T00:29:41.149Z,8.70
2023-12-03T00:31:42.700Z,9.02
2023-12-03T00:33:44.373Z,8.27
2023-12-03T00:35:46.002Z,8.90
2023-12-03T00:42:00.677Z,10.07
2023-12-03T00:44:02.432Z,8.35
2023-12-03T00:46:04.196Z,8.48
2023-12-03T00:48:06.186Z,8.38
2023-12-03T00:50:08.407Z,8.65
2023-12-03T00:54:16.648Z,8.63
2023-12-03T00:56:18.214Z,8.85
2023-12-03T00:58:21.125Z,8.35
2023-12-03T01:00:22.803Z,8.63
2023-12-03T01:02:24.506Z,8.30
2023-12-03T01:04:26.145Z,8.60
2023-12-03T01:06:28.050Z,7.93
2023-12-03T01:08:29.661Z,8.75
2023-12-03T01:10:31.623Z,8.90
2023-12-03T01:16:47.684Z,8.70
2023-12-03T01:18:49.308Z,8.20
2023-12-03T01:20:50.916Z,8.75
2023-12-03T01:22:52.685Z,9.15
2023-12-03T01:27:00.766Z,8.75
2023-12-03T01:29:02.344Z,8.27
2023-12-03T01:31:03.909Z,8.90
2023-12-03T01:33:05.475Z,8.63
2023-12-03T01:35:10.447Z,9.00
2023-12-03T01:37:12.198Z,9.82
2023-12-03T01:41:15.628Z,9.02
2023-12-03T01:43:17.374Z,10.23
2023-12-03T01:45:19.443Z,9.15
2023-12-03T01:51:25.604Z,8.55
2023-12-03T01:53:27.611Z,9.23
2023-12-03T01:55:29.613Z,9.23
2023-12-03T01:57:32.076Z,8.48
2023-12-03T01:59:34.057Z,9.85
2023-12-03T02:01:37.185Z,9.27
2023-12-03T02:05:40.504Z,9.15
2023-12-03T02:07:42.050Z,8.85
2023-12-03T02:09:43.977Z,10.25
2023-12-03T02:15:55.876Z,9.60
2023-12-03T02:17:57.460Z,9.15
2023-12-03T02:19:59.100Z,9.80
2023-12-03T02:22:00.668Z,9.68
2023-12-03T02:26:08.882Z,9.93
2023-12-03T02:28:10.544Z,9.50
2023-12-03T02:30:12.238Z,8.93
2023-12-03T02:32:13.862Z,9.73
2023-12-03T02:34:15.602Z,9.20
2023-12-03T02:36:17.311Z,9.52
2023-12-03T02:38:18.924Z,9.65
2023-12-03T02:40:20.534Z,10.27
2023-12-03T02:42:22.191Z,9.48
2023-12-03T02:44:23.746Z,9.50
2023-12-03T02:46:25.463Z,9.18
2023-12-03T02:48:27.140Z,10.13
2023-12-03T02:50:28.810Z,10.90
2023-12-03T02:52:30.948Z,10.50
2023-12-03T02:54:32.741Z,9.90
2023-12-03T02:56:34.491Z,9.52
2023-12-03T02:58:36.560Z,10.20
2023-12-03T03:00:38.255Z,10.50
2023-12-03T03:02:39.832Z,10.77
2023-12-03T03:04:41.485Z,10.70
2023-12-03T03:06:43.186Z,10.68
2023-12-03T03:08:44.744Z,10.10
2023-12-03T03:10:46.290Z,9.95
2023-12-03T03:12:47.986Z,10.35
2023-12-03T03:14:49.590Z,10.10
2023-12-03T03:16:51.647Z,10.20
2023-12-03T03:18:53.481Z,9.82
2023-12-03T03:20:55.052Z,9.40
2023-12-03T03:22:56.782Z,9.95
2023-12-03T03:25:00.256Z,9.00
2023-12-03T03:27:01.849Z,9.95
2023-12-03T03:29:03.553Z,10.38
2023-12-03T03:31:05.391Z,11.50
2023-12-03T03:35:09.301Z,9.93
2023-12-03T03:37:10.956Z,10.10
2023-12-03T03:39:12.774Z,9.63
2023-12-03T03:41:14.342Z,10.38
2023-12-03T03:43:16.120Z,9.02
2023-12-03T03:45:17.808Z,9.40
2023-12-03T03:47:19.436Z,9.52
2023-12-03T03:49:22.045Z,10.00
2023-12-03T03:51:23.689Z,8.98
2023-12-03T03:53:25.358Z,9.23
2023-12-03T03:55:27.412Z,9.85
2023-12-03T03:57:28.979Z,10.20
2023-12-03T03:59:30.515Z,9.90
2023-12-03T04:01:32.201Z,9.63
2023-12-03T04:03:34.544Z,10.05
2023-12-03T04:05:36.530Z,10.48
2023-12-03T04:07:38.117Z,9.90
2023-12-03T04:09:39.798Z,10.10
2023-12-03T04:11:46.584Z,10.90
2023-12-03T04:13:48.215Z,9.23
2023-12-03T04:15:49.928Z,9.80
2023-12-03T04:17:51.600Z,9.77
2023-12-03T04:19:53.244Z,10.57
2023-12-03T04:21:54.827Z,10.50
2023-12-03T04:23:58.211Z,9.65
2023-12-03T04:25:59.884Z,9.45
2023-12-03T04:28:03.358Z,9.45
2023-12-03T04:30:05.996Z,9.45
2023-12-03T04:32:09.840Z,9.35
2023-12-03T04:34:11.817Z,9.73
2023-12-03T04:38:15.609Z,11.10
2023-12-03T04:40:17.627Z,9.68
2023-12-03T04:42:19.282Z,10.07
2023-12-03T04:44:20.821Z,10.00
2023-12-03T04:46:22.331Z,8.88
2023-12-03T04:48:24.034Z,10.13
2023-12-03T04:50:25.704Z,9.90
2023-12-03T04:52:27.334Z,10.15
2023-12-03T04:54:29.090Z,10.30
2023-12-03T04:56:30.781Z,11.10
2023-12-03T04:58:32.483Z,10.75
2023-12-03T05:00:34.277Z,9.88
2023-12-03T05:02:36.194Z,10.35
2023-12-03T05:04:37.755Z,10.77
2023-12-03T05:06:39.424Z,11.30
2023-12-03T05:08:40.996Z,9.88
2023-12-03T05:10:42.638Z,9.85
2023-12-03T05:12:44.244Z,10.25
2023-12-03T05:14:45.804Z,9.63
2023-12-03T05:16:47.544Z,10.30
2023-12-03T05:18:49.374Z,11.00
2023-12-03T05:22:54.524Z,10.03
2023-12-03T05:24:56.090Z,9.95
2023-12-03T05:26:57.631Z,10.93
2023-12-03T05:28:59.168Z,9.95
2023-12-03T05:31:00.884Z,10.77
2023-12-03T05:33:02.640Z,11.07
2023-12-03T05:35:04.576Z,9.88
2023-12-03T05:37:06.324Z,9.73
2023-12-03T05:39:07.994Z,9.65
2023-12-03T05:41:09.578Z,10.30
2023-12-03T05:43:11.368Z,11.40
2023-12-03T05:45:13.138Z,9.77
2023-12-03T05:47:14.796Z,10.68
2023-12-03T05:49:16.538Z,10.77
2023-12-03T05:51:18.251Z,10.80
2023-12-03T05:53:19.802Z,9.60
2023-12-03T05:55:21.367Z,10.18
2023-12-03T05:57:23.087Z,10.90
2023-12-03T05:59:24.696Z,11.25
2023-12-03T06:01:26.586Z,10.25
2023-12-03T06:05:29.896Z,10.53
2023-12-03T06:09:33.517Z,10.77
2023-12-03T06:11:35.554Z,10.77
2023-12-03T06:13:37.280Z,12.75
2023-12-03T06:15:38.929Z,11.10
2023-12-03T06:17:40.586Z,11.13
2023-12-03T06:19:42.273Z,10.85
2023-12-03T06:21:44.281Z,11.05
2023-12-03T06:25:47.638Z,11.02
2023-12-03T06:27:49.681Z,9.65
2023-12-03T06:29:51.281Z,10.63
2023-12-03T06:31:52.891Z,9.35
2023-12-03T06:33:54.672Z,10.95
2023-12-03T06:35:56.258Z,10.18
2023-12-03T06:40:04.908Z,9.88
2023-12-03T06:42:07.249Z,10.57
2023-12-03T06:44:08.795Z,10.40
2023-12-03T06:46:10.361Z,12.30
2023-12-03T06:52:20.819Z,11.02
2023-12-03T06:54:22.396Z,11.15
2023-12-03T06:56:24.631Z,10.45
2023-12-03T06:58:26.251Z,10.23
2023-12-03T07:04:40.924Z,10.15
2023-12-03T07:06:42.638Z,10.52
2023-12-03T07:08:45.936Z,10.60
2023-12-03T07:10:47.734Z,10.52
2023-12-03T07:12:49.354Z,10.93
2023-12-03T07:16:57.411Z,10.43
2023-12-03T07:18:59.104Z,9.85
2023-12-03T07:21:00.780Z,9.80
2023-12-03T07:23:02.880Z,11.65
2023-12-03T07:29:13.584Z,10.50
2023-12-03T07:31:16.602Z,11.15
2023-12-03T07:33:18.397Z,9.60
2023-12-03T07:35:20.065Z,11.13
2023-12-03T07:39:28.190Z,10.65
2023-12-03T07:41:29.851Z,10.15
2023-12-03T07:43:31.427Z,10.05
2023-12-03T07:45:33.238Z,10.05
2023-12-03T07:47:34.995Z,9.25
2023-12-03T07:49:36.768Z,10.63
2023-12-03T07:51:38.583Z,10.00
2023-12-03T07:53:40.894Z,10.63
2023-12-03T07:55:42.433Z,10.63
2023-12-03T07:57:44.221Z,8.88
2023-12-03T07:59:45.972Z,9.75
2023-12-03T08:01:48.586Z,9.68
2023-12-03T08:03:50.182Z,9.75
2023-12-03T08:05:52.134Z,9.25
2023-12-03T08:09:56.019Z,10.65
2023-12-03T08:11:57.587Z,10.00
2023-12-03T08:13:59.183Z,9.90
2023-12-03T08:16:03.413Z,9.20
2023-12-03T08:18:05.564Z,9.77
2023-12-03T08:20:07.807Z,9.15
2023-12-03T08:22:09.456Z,9.93
2023-12-03T08:24:11.080Z,10.13
2023-12-03T08:28:14.613Z,8.77
2023-12-03T08:30:17.544Z,10.15
2023-12-03T08:32:20.776Z,9.35
2023-12-03T08:34:22.460Z,9.50
2023-12-03T08:36:24.080Z,10.00
2023-12-03T08:38:26.112Z,9.98
2023-12-03T08:40:27.988Z,9.23
2023-12-03T08:44:33.119Z,11.47
2023-12-03T08:48:41.166Z,9.70
2023-12-03T08:50:43.052Z,9.55
2023-12-03T08:52:45.025Z,9.95
2023-12-03T08:56:49.344Z,10.00
2023-12-03T08:58:51.118Z,9.35
2023-12-03T09:00:52.744Z,9.52
2023-12-03T09:02:54.385Z,9.52
2023-12-03T09:04:56.130Z,9.73
2023-12-03T09:06:57.865Z,9.40
2023-12-03T09:13:07.849Z,9.88
2023-12-03T09:15:10.250Z,10.00
2023-12-03T09:17:12.126Z,9.55
2023-12-03T09:21:17.669Z,9.07
2023-12-03T09:23:19.743Z,8.25
2023-12-03T09:27:23.026Z,8.93
2023-12-03T09:29:24.663Z,8.05
2023-12-03T09:31:26.364Z,9.23
2023-12-03T09:33:28.867Z,8.40
2023-12-03T09:35:32.727Z,8.65
2023-12-03T09:37:34.808Z,8.73
2023-12-03T09:39:36.528Z,8.73
2023-12-03T09:41:43.393Z,8.95
2023-12-03T09:43:48.015Z,8.85
2023-12-03T09:48:02.452Z,8.32
2023-12-03T09:50:05.919Z,9.50
2023-12-03T09:52:08.522Z,9.18
2023-12-03T09:54:10.509Z,8.05
2023-12-03T09:58:17.738Z,8.52
2023-12-03T10:02:24.722Z,7.75
2023-12-03T10:04:26.685Z,7.97
2023-12-03T10:06:29.458Z,8.80
2023-12-03T10:08:34.915Z,8.80
2023-12-03T10:10:41.603Z,8.85
2023-12-03T10:12:44.093Z,9.57
2023-12-03T10:14:46.586Z,9.55
2023-12-03T10:16:49.946Z,8.45
2023-12-03T10:18:52.579Z,8.60
2023-12-03T10:21:10.304Z,9.10
2023-12-03T10:23:16.790Z,8.43
2023-12-03T10:25:27.897Z,9.60
2023-12-03T10:27:30.737Z,8.40
2023-12-03T10:29:32.600Z,9.18
2023-12-03T10:31:34.399Z,8.25
2023-12-03T10:33:37.964Z,9.15
2023-12-03T10:35:40.046Z,9.25
2023-12-03T10:39:47.499Z,8.25
2023-12-03T10:41:52.591Z,8.65
2023-12-03T10:43:54.444Z,8.25
2023-12-03T10:45:56.078Z,9.68
2023-12-03T10:48:01.388Z,12.07
2023-12-03T10:50:06.619Z,9.75
2023-12-03T10:52:09.538Z,9.95
2023-12-03T10:54:14.652Z,9.93
2023-12-03T10:56:17.280Z,9.32
2023-12-03T10:58:20.994Z,13.68
2023-12-03T11:00:26.025Z,11.18
2023-12-03T11:02:33.366Z,14.20
2023-12-03T11:04:59.615Z,13.73
2023-12-03T11:07:06.868Z,14.80
2023-12-03T11:09:08.970Z,15.38
2023-12-03T11:11:12.753Z,13.27
2023-12-03T11:13:22.903Z,15.77
2023-12-03T11:15:29.684Z,12.63
2023-12-03T11:17:42.564Z,14.50
2023-12-03T11:19:55.583Z,12.95
2023-12-03T11:22:17.104Z,14.20
2023-12-03T11:25:02.035Z,25.70
2023-12-03T11:31:17.019Z,47.15
2023-12-03T11:33:23.031Z,47.00
2023-12-03T11:35:25.891Z,47.50
2023-12-03T11:39:38.927Z,46.65
2023-12-03T11:41:42.961Z,46.92
2023-12-03T11:50:19.866Z,36.28
2023-12-03T11:54:59.710Z,29.52
2023-12-03T11:57:01.370Z,26.77
2023-12-03T11:59:02.998Z,26.52
2023-12-03T12:01:04.697Z,25.90
2023-12-03T12:03:07.499Z,26.02
2023-12-03T12:05:10.404Z,24.13
2023-12-03T12:07:17.649Z,22.83
2023-12-03T12:09:23.826Z,21.63
2023-12-03T12:11:26.416Z,31.15
2023-12-03T12:13:28.286Z,40.35
2023-12-03T12:15:30.789Z,42.85
2023-12-03T12:17:33.309Z,51.58
2023-12-03T12:21:56.972Z,45.88
2023-12-03T12:23:58.713Z,43.83
2023-12-03T12:26:00.414Z,43.03
2023-12-03T12:28:02.461Z,47.50
2023-12-03T12:30:17.491Z,46.28
2023-12-03T12:32:32.399Z,40.65
2023-12-03T12:34:35.247Z,40.47
2023-12-03T12:36:37.127Z,40.88
2023-12-03T12:38:45.054Z,45.05
2023-12-03T12:40:56.562Z,43.78
2023-12-03T12:43:06.177Z,43.15
2023-12-03T12:45:28.785Z,41.50
2023-12-03T12:47:38.434Z,37.30
2023-12-03T12:49:44.625Z,37.50
2023-12-03T12:51:46.570Z,31.38
2023-12-03T12:53:59.539Z,33.30
2023-12-03T12:56:01.408Z,33.45
2023-12-03T12:58:11.054Z,37.92
2023-12-03T13:00:12.921Z,36.10
2023-12-03T13:02:22.538Z,39.33
2023-12-03T13:04:24.226Z,94.97
2023-12-03T13:06:27.532Z,70.40
2023-12-03T13:08:31.992Z,70.90
2023-12-03T13:10:35.445Z,62.17
2023-12-03T13:12:37.162Z,55.35
2023-12-03T13:14:39.359Z,61.75
2023-12-03T13:16:42.289Z,52.25
2023-12-03T13:18:44.723Z,47.90
2023-12-03T13:20:46.469Z,49.72
2023-12-03T13:22:50.347Z,57.55
2023-12-03T13:24:52.227Z,44.92
2023-12-03T13:28:55.529Z,37.77
2023-12-03T13:30:57.146Z,37.50
2023-12-03T13:32:59.411Z,36.45
2023-12-03T13:35:04.329Z,30.33
2023-12-03T13:37:08.067Z,31.63
2023-12-03T13:39:09.851Z,25.60
2023-12-03T13:41:11.659Z,26.38
2023-12-03T13:43:13.325Z,21.55
2023-12-03T13:45:15.145Z,22.77
2023-12-03T13:47:17.735Z,19.80
2023-12-03T13:49:19.532Z,22.55
2023-12-03T13:51:21.428Z,23.15
2023-12-03T13:53:23.012Z,27.98
2023-12-03T13:55:25.521Z,27.90
2023-12-03T13:57:28.246Z,27.50
2023-12-03T13:59:30.008Z,25.92
2023-12-03T14:01:31.643Z,27.52
2023-12-03T14:03:33.308Z,29.90
2023-12-03T14:05:35.132Z,31.50
2023-12-03T14:07:37.334Z,29.13
2023-12-03T14:09:38.903Z,23.45
2023-12-03T14:11:41.032Z,23.67
2023-12-03T14:13:42.792Z,23.45
2023-12-03T14:15:44.450Z,22.63
2023-12-03T14:17:49.622Z,18.40
2023-12-03T14:19:51.721Z,16.27
2023-12-03T14:21:53.754Z,16.33
2023-12-03T14:25:57.000Z,13.80
2023-12-03T14:27:58.896Z,13.82
2023-12-03T14:32:02.373Z,15.93
2023-12-03T14:36:06.481Z,16.70
2023-12-03T14:38:08.214Z,17.83
2023-12-03T14:40:14.395Z,18.83
2023-12-03T14:42:16.335Z,17.40
2023-12-03T14:44:18.520Z,16.98
2023-12-03T14:46:21.421Z,14.30
2023-12-03T14:48:23.216Z,14.57
2023-12-03T14:50:25.139Z,12.90
2023-12-03T14:52:26.771Z,13.10
2023-12-03T14:54:28.613Z,12.00
2023-12-03T14:58:32.876Z,12.43
2023-12-03T15:00:35.410Z,10.55
2023-12-03T15:02:37.034Z,12.82
2023-12-03T15:04:42.452Z,12.80
2023-12-03T15:06:44.320Z,14.38
2023-12-03T15:08:46.938Z,11.10
2023-12-03T15:10:48.586Z,12.27
2023-12-03T15:12:50.408Z,10.57
2023-12-03T15:16:53.857Z,11.35
2023-12-03T15:18:55.598Z,10.88
2023-12-03T15:20:57.259Z,10.52
2023-12-03T15:22:59.545Z,10.15
2023-12-03T15:25:01.179Z,10.68
2023-12-03T15:27:02.804Z,12.20
2023-12-03T15:29:04.356Z,9.88
2023-12-03T15:31:06.463Z,10.35
2023-12-03T15:33:08.081Z,10.48
2023-12-03T15:35:09.913Z,8.18
2023-12-03T15:39:13.205Z,10.17
2023-12-03T15:41:15.211Z,8.25
2023-12-03T15:43:21.012Z,8.75
2023-12-03T15:45:25.647Z,9.82
2023-12-03T15:47:27.315Z,8.48
2023-12-03T15:49:28.971Z,8.27
2023-12-03T15:51:32.319Z,9.13
2023-12-03T15:53:33.979Z,8.65
2023-12-03T15:55:35.812Z,7.78
2023-12-03T15:57:40.157Z,7.55
2023-12-03T15:59:41.868Z,7.85
2023-12-03T16:01:43.538Z,9.18
2023-12-03T16:03:45.387Z,9.13
2023-12-03T16:07:48.834Z,8.15
2023-12-03T16:09:53.544Z,8.38
2023-12-03T16:11:57.031Z,10.77
2023-12-03T16:13:58.600Z,7.80
2023-12-03T16:16:00.276Z,13.30
2023-12-03T16:18:02.108Z,9.73
2023-12-03T16:22:05.738Z,14.65
2023-12-03T16:24:08.109Z,11.52
2023-12-03T16:26:09.662Z,12.32
2023-12-03T16:28:11.369Z,10.95
2023-12-03T16:30:13.398Z,10.52
2023-12-03T16:32:15.476Z,9.95
2023-12-03T16:34:26.784Z,14.25
2023-12-03T16:36:28.955Z,10.35
2023-12-03T16:38:32.455Z,9.43
2023-12-03T16:40:34.303Z,10.95
2023-12-03T16:44:38.067Z,12.98
2023-12-03T16:46:39.805Z,12.80
2023-12-03T16:48:41.704Z,12.73
2023-12-03T16:52:44.828Z,13.10
2023-12-03T16:54:47.044Z,15.55
2023-12-03T16:56:48.755Z,16.38
2023-12-03T16:58:50.366Z,37.65
2023-12-03T17:00:52.178Z,32.70
2023-12-03T17:04:55.805Z,33.58
2023-12-03T17:06:57.408Z,29.52
2023-12-03T17:08:59.004Z,30.30
2023-12-03T17:11:00.798Z,27.15
2023-12-03T17:13:03.599Z,20.67
2023-12-03T17:15:06.493Z,26.50
2023-12-03T17:17:08.346Z,23.58
2023-12-03T17:19:10.122Z,25.38
2023-12-03T17:21:13.115Z,24.38
2023-12-03T17:23:14.861Z,23.27
2023-12-03T17:25:16.562Z,24.10
2023-12-03T17:27:18.205Z,20.77
2023-12-03T17:29:19.788Z,27.25
2023-12-03T17:31:21.350Z,14.43
2023-12-03T17:33:26.956Z,18.90
2023-12-03T17:35:29.322Z,34.75
2023-12-03T17:37:30.920Z,102.53
2023-12-03T17:39:32.673Z,36.10
2023-12-03T17:41:34.968Z,55.50
2023-12-03T17:43:36.844Z,38.28
2023-12-03T17:45:38.437Z,31.95
2023-12-03T17:47:41.283Z,27.17
2023-12-03T17:49:43.089Z,26.92
2023-12-03T17:51:44.703Z,23.00
2023-12-03T17:53:47.258Z,21.10
2023-12-03T17:55:48.981Z,24.50
2023-12-03T17:57:50.667Z,24.25
2023-12-03T17:59:52.704Z,22.30
2023-12-03T18:01:54.702Z,21.02
2023-12-03T18:05:59.162Z,16.73
2023-12-03T18:08:00.752Z,15.63
2023-12-03T18:10:04.684Z,13.10
2023-12-03T18:12:06.881Z,11.50
2023-12-03T18:14:10.045Z,13.50
2023-12-03T18:16:12.392Z,12.55
2023-12-03T18:18:18.285Z,11.13
2023-12-03T18:20:19.990Z,10.82
2023-12-03T18:22:21.549Z,11.98
2023-12-03T18:24:23.595Z,14.75
2023-12-03T18:26:25.279Z,9.88
2023-12-03T18:28:27.028Z,10.10
2023-12-03T18:30:28.674Z,9.27
2023-12-03T18:32:30.885Z,9.50
2023-12-03T18:34:32.957Z,9.05
2023-12-03T18:36:35.105Z,9.15
2023-12-03T18:38:36.984Z,8.52
2023-12-03T18:40:40.833Z,8.85
2023-12-03T18:42:42.609Z,8.02
2023-12-03T18:44:44.199Z,11.45
2023-12-03T18:46:45.767Z,7.38
2023-12-03T18:48:47.972Z,8.75
2023-12-03T18:50:51.455Z,8.15
2023-12-03T18:52:53.697Z,11.10
2023-12-03T18:54:55.476Z,8.60
2023-12-03T18:56:57.122Z,9.10
2023-12-03T18:58:58.953Z,8.63
2023-12-03T19:03:03.198Z,9.35
2023-12-03T19:05:05.708Z,8.20
2023-12-03T19:07:07.584Z,8.05
2023-12-03T19:11:11.490Z,8.05
2023-12-03T19:13:16.870Z,9.70
2023-12-03T19:15:19.172Z,8.95
2023-12-03T19:17:21.178Z,8.15
2023-12-03T19:19:22.951Z,7.20
2023-12-03T19:23:26.795Z,6.85
2023-12-03T19:27:30.558Z,7.38
2023-12-03T19:29:35.882Z,7.75
2023-12-03T19:31:47.929Z,7.72
2023-12-03T19:33:49.573Z,6.90
2023-12-03T19:35:51.119Z,7.10
2023-12-03T19:37:53.072Z,7.40
2023-12-03T19:41:56.368Z,6.53
2023-12-03T19:43:58.180Z,7.43
2023-12-03T19:48:01.952Z,7.03
2023-12-03T19:50:04.034Z,7.55
2023-12-03T19:54:07.594Z,6.78
2023-12-03T19:56:09.470Z,7.45
2023-12-03T19:58:11.521Z,6.45
2023-12-03T20:00:13.807Z,6.28
2023-12-03T20:02:15.442Z,7.10
2023-12-03T20:04:17.444Z,6.90
2023-12-03T20:06:19.294Z,7.03
2023-12-03T20:08:22.868Z,6.68
2023-12-03T20:10:25.588Z,6.60
2023-12-03T20:12:31.235Z,6.50
2023-12-03T20:14:33.264Z,6.40
2023-12-03T20:18:37.989Z,6.60
2023-12-03T20:20:39.849Z,5.60
2023-12-03T20:22:43.486Z,6.68
2023-12-03T20:24:45.058Z,6.45
2023-12-03T20:26:46.801Z,5.88
2023-12-03T20:28:52.389Z,6.88
2023-12-03T20:30:54.187Z,6.45
2023-12-03T20:32:55.972Z,6.80
2023-12-03T20:34:57.640Z,7.05
2023-12-03T20:37:00.170Z,6.50
2023-12-03T20:39:01.818Z,6.68
2023-12-03T20:41:03.599Z,7.00
2023-12-03T20:43:05.269Z,7.25
2023-12-03T20:45:07.523Z,6.25
2023-12-03T20:47:09.644Z,6.22
2023-12-03T20:49:11.513Z,6.10
2023-12-03T20:51:14.668Z,7.20
2023-12-03T20:53:17.147Z,6.35
2023-12-03T20:55:18.744Z,6.60
2023-12-03T20:57:21.658Z,6.60
2023-12-03T20:59:23.523Z,6.65
2023-12-03T21:03:30.018Z,5.95
2023-12-03T21:05:31.756Z,5.95
2023-12-03T21:09:35.860Z,6.25
2023-12-03T21:11:38.282Z,7.20
2023-12-03T21:13:39.896Z,7.18
2023-12-03T21:15:41.872Z,6.57
2023-12-03T21:17:43.759Z,6.50
2023-12-03T21:21:47.160Z,6.57
2023-12-03T21:23:48.784Z,6.15
2023-12-03T21:25:50.341Z,5.90
2023-12-03T21:27:51.970Z,6.22
2023-12-03T21:29:53.808Z,6.00
2023-12-03T21:33:57.306Z,6.28
2023-12-03T21:38:07.165Z,5.95
2023-12-03T21:40:09.436Z,6.45
2023-12-03T21:42:11.058Z,6.82
2023-12-03T21:44:12.693Z,6.55
2023-12-03T21:46:14.508Z,6.18
2023-12-03T21:50:17.814Z,6.55
2023-12-03T21:52:21.148Z,5.85
2023-12-03T21:54:23.985Z,5.93
2023-12-03T21:56:25.569Z,5.90
2023-12-03T21:58:27.362Z,6.40
2023-12-03T22:00:29.422Z,5.70
2023-12-03T22:02:31.143Z,6.70
2023-12-03T22:04:33.282Z,6.32
2023-12-03T22:06:35.415Z,6.20
2023-12-03T22:08:37.806Z,5.72
2023-12-03T22:10:39.599Z,5.43
2023-12-03T22:12:41.263Z,7.32
2023-12-03T22:14:43.447Z,5.82
2023-12-03T22:16:45.038Z,5.40
2023-12-03T22:18:46.704Z,5.57
2023-12-03T22:20:48.350Z,5.93
2023-12-03T22:22:49.920Z,6.25
2023-12-03T22:24:51.627Z,5.45
2023-12-03T22:26:53.262Z,5.95
2023-12-03T22:28:54.990Z,7.07
2023-12-03T22:30:56.787Z,5.85
2023-12-03T22:34:59.960Z,5.68
2023-12-03T22:37:01.842Z,5.80
2023-12-03T22:39:03.586Z,7.22
2023-12-03T22:41:05.421Z,5.40
2023-12-03T22:45:09.049Z,5.72
2023-12-03T22:47:10.609Z,5.43
2023-12-03T22:49:17.403Z,5.22
2023-12-03T22:51:19.341Z,5.38
2023-12-03T22:53:20.967Z,5.30
2023-12-03T22:55:22.557Z,5.55
2023-12-03T22:57:24.189Z,5.60
2023-12-03T22:59:25.915Z,5.25
2023-12-03T23:01:27.615Z,5.25
2023-12-03T23:03:29.307Z,5.28
2023-12-03T23:05:37.957Z,6.07
2023-12-03T23:07:40.702Z,4.80
2023-12-03T23:09:42.293Z,5.43
2023-12-03T23:11:43.882Z,5.30
2023-12-03T23:13:45.469Z,5.10
2023-12-03T23:15:47.130Z,4.93
2023-12-03T23:17:48.752Z,6.45
2023-12-03T23:19:50.481Z,4.63
2023-12-03T23:21:52.207Z,4.93
2023-12-03T23:23:53.868Z,5.07
2023-12-03T23:25:55.441Z,4.60
2023-12-03T23:27:57.120Z,4.65
2023-12-03T23:29:58.849Z,5.45
2023-12-03T23:34:03.778Z,4.70
2023-12-03T23:36:06.022Z,5.00
2023-12-03T23:38:07.848Z,5.10
2023-12-03T23:40:09.663Z,5.13
2023-12-03T23:44:12.847Z,4.87
2023-12-03T23:46:14.529Z,5.20
2023-12-03T23:48:16.200Z,5.55
2023-12-03T23:50:17.789Z,4.90
2023-12-03T23:54:25.930Z,5.50
2023-12-03T23:56:27.494Z,5.25
2023-12-03T23:58:29.108Z,4.63
